Аэропорт
Международный аэропорт Чхонджу (RKTU)

 RKTU / CJJ

Korea, Republic of
KR-43
Чхонджу
 36.71660, 127.49900  / 191 ft

 RKTU 182000Z 25004KT 8000 NSC 14/14 Q1016
 TAF RKTU 181100Z 1812/1918 27006KT 9999 SCT030 SCT200 TN14/1821Z TX24/1906Z BECMG 1817/1818 4800 BR SCT030 BECMG 1900/1901 9999 NSW

2020 © VATRUS division (Privacy Policy)